createdAt,value
2019-03-28T00:00:25.968Z,1025.64
2019-03-28T00:01:25.963Z,1025.64
2019-03-28T00:02:25.958Z,1025.65
2019-03-28T00:03:25.950Z,1025.65
2019-03-28T00:04:25.942Z,1025.63
2019-03-28T00:05:25.940Z,1025.65
2019-03-28T00:06:25.927Z,1025.65
2019-03-28T00:07:25.919Z,1025.66
2019-03-28T00:08:25.914Z,1025.60
2019-03-28T00:09:25.920Z,1025.65
2019-03-28T00:10:25.898Z,1025.63
2019-03-28T00:11:25.895Z,1025.63
2019-03-28T00:12:25.886Z,1025.62
2019-03-28T00:13:25.882Z,1025.63
2019-03-28T00:14:25.873Z,1025.61
2019-03-28T00:15:25.867Z,1025.60
2019-03-28T00:16:25.858Z,1025.58
2019-03-28T00:17:25.851Z,1025.55
2019-03-28T00:18:25.844Z,1025.59
2019-03-28T00:19:25.837Z,1025.55
2019-03-28T00:20:25.832Z,1025.54
2019-03-28T00:21:26.292Z,1025.54
2019-03-28T00:22:25.817Z,1025.54
2019-03-28T00:23:25.812Z,1025.54
2019-03-28T00:24:25.803Z,1025.50
2019-03-28T00:25:25.804Z,1025.56
2019-03-28T00:26:30.365Z,1025.53
2019-03-28T00:27:25.786Z,1025.55
2019-03-28T00:28:25.776Z,1025.56
2019-03-28T00:29:25.770Z,1025.56
2019-03-28T00:30:25.766Z,1025.56
2019-03-28T00:31:25.759Z,1025.59
2019-03-28T00:32:26.319Z,1025.59
2019-03-28T00:33:25.743Z,1025.58
2019-03-28T00:34:25.738Z,1025.58
2019-03-28T00:35:26.197Z,1025.58
2019-03-28T00:36:25.723Z,1025.58
2019-03-28T00:37:25.715Z,1025.54
2019-03-28T00:38:25.708Z,1025.59
2019-03-28T00:39:25.700Z,1025.56
2019-03-28T00:40:25.698Z,1025.57
2019-03-28T00:41:25.689Z,1025.54
2019-03-28T00:42:25.682Z,1025.54
2019-03-28T00:43:25.672Z,1025.56
2019-03-28T00:44:25.672Z,1025.59
2019-03-28T00:45:25.659Z,1025.58
2019-03-28T00:46:25.654Z,1025.55
2019-03-28T00:47:25.647Z,1025.54
2019-03-28T00:48:25.641Z,1025.55
2019-03-28T00:49:25.631Z,1025.53
2019-03-28T00:50:25.627Z,1025.53
2019-03-28T00:51:25.617Z,1025.54
2019-03-28T00:52:25.616Z,1025.55
2019-03-28T00:53:25.606Z,1025.56
2019-03-28T00:54:25.599Z,1025.56
2019-03-28T00:55:25.590Z,1025.60
2019-03-28T00:56:25.588Z,1025.58
2019-03-28T00:57:25.577Z,1025.59
2019-03-28T00:58:25.570Z,1025.56
2019-03-28T00:59:25.577Z,1025.61
2019-03-28T01:00:25.560Z,1025.60
2019-03-28T01:01:25.552Z,1025.62
2019-03-28T01:02:25.545Z,1025.58
2019-03-28T01:03:25.535Z,1025.61
2019-03-28T01:04:25.530Z,1025.61
2019-03-28T01:05:25.523Z,1025.57
2019-03-28T01:06:25.519Z,1025.56
2019-03-28T01:07:25.509Z,1025.58
2019-03-28T01:08:25.509Z,1025.56
2019-03-28T01:09:25.497Z,1025.57
2019-03-28T01:10:25.489Z,1025.60
2019-03-28T01:11:25.481Z,1025.57
2019-03-28T01:12:25.476Z,1025.56
2019-03-28T01:13:25.470Z,1025.58
2019-03-28T01:14:25.462Z,1025.53
2019-03-28T01:15:25.456Z,1025.58
2019-03-28T01:16:25.452Z,1025.56
2019-03-28T01:17:25.442Z,1025.56
2019-03-28T01:18:25.439Z,1025.56
2019-03-28T01:19:25.428Z,1025.54
2019-03-28T01:20:26.240Z,1025.56
2019-03-28T01:21:25.415Z,1025.58
2019-03-28T01:22:25.410Z,1025.54
2019-03-28T01:23:25.403Z,1025.57
2019-03-28T01:24:25.404Z,1025.57
2019-03-28T01:25:25.385Z,1025.55
2019-03-28T01:26:25.378Z,1025.57
2019-03-28T01:27:25.481Z,1025.56
2019-03-28T01:28:25.366Z,1025.56
2019-03-28T01:29:25.358Z,1025.53
2019-03-28T01:30:25.354Z,1025.54
2019-03-28T01:31:25.347Z,1025.55
2019-03-28T01:32:25.338Z,1025.50
2019-03-28T01:33:25.330Z,1025.52
2019-03-28T01:34:25.323Z,1025.57
2019-03-28T01:35:25.319Z,1025.56
2019-03-28T01:36:25.310Z,1025.56
2019-03-28T01:37:25.305Z,1025.56
2019-03-28T01:38:25.297Z,1025.59
2019-03-28T01:39:25.302Z,1025.57
2019-03-28T01:40:26.157Z,1025.55
2019-03-28T01:41:25.281Z,1025.57
2019-03-28T01:42:25.269Z,1025.58
2019-03-28T01:43:25.269Z,1025.59
2019-03-28T01:44:25.255Z,1025.60
2019-03-28T01:45:25.247Z,1025.58
2019-03-28T01:46:25.309Z,1025.61
2019-03-28T01:47:25.233Z,1025.61
2019-03-28T01:48:25.228Z,1025.61
2019-03-28T01:49:25.221Z,1025.64
2019-03-28T01:50:25.216Z,1025.61
2019-03-28T01:51:25.208Z,1025.61
2019-03-28T01:52:25.199Z,1025.64
2019-03-28T01:53:25.191Z,1025.63
2019-03-28T01:54:25.186Z,1025.62
2019-03-28T01:55:25.180Z,1025.63
2019-03-28T01:56:25.308Z,1025.64
2019-03-28T01:57:25.167Z,1025.62
2019-03-28T01:58:25.160Z,1025.66
2019-03-28T01:59:25.152Z,1025.63
2019-03-28T02:00:25.143Z,1025.64
2019-03-28T02:01:25.144Z,1025.66
2019-03-28T02:02:25.136Z,1025.62
2019-03-28T02:03:25.125Z,1025.65
2019-03-28T02:04:25.117Z,1025.65
2019-03-28T02:05:25.110Z,1025.66
2019-03-28T02:06:25.104Z,1025.66
2019-03-28T02:07:25.229Z,1025.70
2019-03-28T02:08:25.113Z,1025.68
2019-03-28T02:09:25.085Z,1025.68
2019-03-28T02:10:25.077Z,1025.66
2019-03-28T02:11:25.072Z,1025.68
2019-03-28T02:12:25.062Z,1025.65
2019-03-28T02:13:25.054Z,1025.67
2019-03-28T02:14:25.052Z,1025.70
2019-03-28T02:15:25.041Z,1025.70
2019-03-28T02:16:25.035Z,1025.66
2019-03-28T02:17:25.027Z,1025.66
2019-03-28T02:18:25.021Z,1025.65
2019-03-28T02:19:25.013Z,1025.66
2019-03-28T02:20:25.004Z,1025.70
2019-03-28T02:21:25.001Z,1025.65
2019-03-28T02:22:24.995Z,1025.66
2019-03-28T02:23:24.985Z,1025.71
2019-03-28T02:24:24.983Z,1025.72
2019-03-28T02:25:24.971Z,1025.72
2019-03-28T02:26:24.970Z,1025.71
2019-03-28T02:27:25.976Z,1025.70
2019-03-28T02:28:24.950Z,1025.77
2019-03-28T02:29:24.944Z,1025.73
2019-03-28T02:30:25.136Z,1025.73
2019-03-28T02:31:24.930Z,1025.67
2019-03-28T02:32:24.924Z,1025.68
2019-03-28T02:33:25.460Z,1025.70
2019-03-28T02:34:24.909Z,1025.71
2019-03-28T02:35:24.902Z,1025.73
2019-03-28T02:36:24.904Z,1025.70
2019-03-28T02:37:24.888Z,1025.71
2019-03-28T02:38:24.883Z,1025.74
2019-03-28T02:39:24.875Z,1025.71
2019-03-28T02:40:24.867Z,1025.67
2019-03-28T02:41:24.862Z,1025.76
2019-03-28T02:42:24.852Z,1025.69
2019-03-28T02:43:24.844Z,1025.72
2019-03-28T02:44:24.840Z,1025.74
2019-03-28T02:45:24.836Z,1025.74
2019-03-28T02:46:24.827Z,1025.69
2019-03-28T02:47:24.820Z,1025.72
2019-03-28T02:48:24.811Z,1025.75
2019-03-28T02:49:24.805Z,1025.75
2019-03-28T02:50:24.801Z,1025.72
2019-03-28T02:51:24.790Z,1025.76
2019-03-28T02:52:24.784Z,1025.77
2019-03-28T02:53:24.784Z,1025.77
2019-03-28T02:54:24.805Z,1025.82
2019-03-28T02:55:24.763Z,1025.78
2019-03-28T02:56:24.754Z,1025.82
2019-03-28T02:57:40.294Z,1025.81
2019-03-28T02:58:24.741Z,1025.80
2019-03-28T02:59:24.739Z,1025.81
2019-03-28T03:00:24.727Z,1025.80
2019-03-28T03:01:24.726Z,1025.83
2019-03-28T03:02:24.713Z,1025.79
2019-03-28T03:03:24.711Z,1025.80
2019-03-28T03:04:24.697Z,1025.80
2019-03-28T03:05:24.790Z,1025.79
2019-03-28T03:06:24.686Z,1025.81
2019-03-28T03:07:24.676Z,1025.84
2019-03-28T03:08:24.673Z,1025.82
2019-03-28T03:09:25.655Z,1025.85
2019-03-28T03:10:24.658Z,1025.85
2019-03-28T03:11:24.649Z,1025.81
2019-03-28T03:12:24.644Z,1025.83
2019-03-28T03:13:24.636Z,1025.84
2019-03-28T03:14:24.627Z,1025.86
2019-03-28T03:15:24.628Z,1025.81
2019-03-28T03:16:24.621Z,1025.87
2019-03-28T03:17:24.613Z,1025.82
2019-03-28T03:18:24.603Z,1025.86
2019-03-28T03:19:25.772Z,1025.85
2019-03-28T03:20:24.595Z,1025.82
2019-03-28T03:21:24.581Z,1025.84
2019-03-28T03:22:24.575Z,1025.79
2019-03-28T03:23:24.571Z,1025.85
2019-03-28T03:24:24.595Z,1025.82
2019-03-28T03:25:24.553Z,1025.83
2019-03-28T03:26:24.545Z,1025.83
2019-03-28T03:27:24.538Z,1025.80
2019-03-28T03:28:24.532Z,1025.79
2019-03-28T03:29:24.524Z,1025.79
2019-03-28T03:30:24.526Z,1025.80
2019-03-28T03:31:25.154Z,1025.79
2019-03-28T03:32:24.508Z,1025.72
2019-03-28T03:33:24.506Z,1025.77
2019-03-28T03:34:24.495Z,1025.75
2019-03-28T03:35:24.755Z,1025.76
2019-03-28T03:36:24.477Z,1025.79
2019-03-28T03:37:24.466Z,1025.82
2019-03-28T03:38:24.467Z,1025.82
2019-03-28T03:39:24.460Z,1025.79
2019-03-28T03:40:24.447Z,1025.83
2019-03-28T03:41:24.441Z,1025.83
2019-03-28T03:42:24.437Z,1025.83
2019-03-28T03:43:24.427Z,1025.79
2019-03-28T03:44:24.437Z,1025.85
2019-03-28T03:45:24.412Z,1025.84
2019-03-28T03:46:24.405Z,1025.88
2019-03-28T03:47:24.398Z,1025.87
2019-03-28T03:48:24.391Z,1025.86
2019-03-28T03:49:24.384Z,1025.88
2019-03-28T03:50:24.379Z,1025.87
2019-03-28T03:51:24.373Z,1025.87
2019-03-28T03:52:24.362Z,1025.86
2019-03-28T03:53:24.359Z,1025.91
2019-03-28T03:54:24.353Z,1025.88
2019-03-28T03:55:24.345Z,1025.89
2019-03-28T03:56:24.335Z,1025.89
2019-03-28T03:57:24.329Z,1025.92
2019-03-28T03:58:24.326Z,1025.89
2019-03-28T03:59:24.312Z,1025.89
2019-03-28T04:00:24.307Z,1025.90
2019-03-28T04:01:24.300Z,1025.90
2019-03-28T04:02:24.297Z,1025.87
2019-03-28T04:03:24.288Z,1025.91
2019-03-28T04:04:24.284Z,1025.86
2019-03-28T04:05:24.273Z,1025.88
2019-03-28T04:06:24.269Z,1025.88
2019-03-28T04:07:24.258Z,1025.90
2019-03-28T04:08:24.251Z,1025.87
2019-03-28T04:09:24.247Z,1025.91
2019-03-28T04:10:24.236Z,1025.92
2019-03-28T04:11:24.235Z,1025.91
2019-03-28T04:12:24.223Z,1025.92
2019-03-28T04:13:24.215Z,1025.93
2019-03-28T04:14:24.212Z,1025.88
2019-03-28T04:15:24.201Z,1025.90
2019-03-28T04:16:24.194Z,1025.91
2019-03-28T04:17:24.191Z,1025.96
2019-03-28T04:18:24.185Z,1025.97
2019-03-28T04:19:24.173Z,1025.97
2019-03-28T04:20:25.018Z,1025.99
2019-03-28T04:21:24.160Z,1025.99
2019-03-28T04:22:24.155Z,1026.02
2019-03-28T04:23:24.148Z,1026.01
2019-03-28T04:24:24.140Z,1026.00
2019-03-28T04:25:24.133Z,1026.03
2019-03-28T04:26:24.132Z,1026.04
2019-03-28T04:27:24.125Z,1026.06
2019-03-28T04:28:31.326Z,1026.05
2019-03-28T04:29:24.104Z,1026.07
2019-03-28T04:30:24.109Z,1026.10
2019-03-28T04:31:24.087Z,1026.08
2019-03-28T04:32:24.089Z,1026.10
2019-03-28T04:33:24.076Z,1026.10
2019-03-28T04:34:24.067Z,1026.14
2019-03-28T04:35:24.065Z,1026.13
2019-03-28T04:36:24.058Z,1026.15
2019-03-28T04:37:24.048Z,1026.13
2019-03-28T04:38:24.596Z,1026.15
2019-03-28T04:39:24.034Z,1026.16
2019-03-28T04:40:24.026Z,1026.15
2019-03-28T04:41:24.020Z,1026.14
2019-03-28T04:42:24.014Z,1026.15
2019-03-28T04:43:24.019Z,1026.15
2019-03-28T04:44:23.998Z,1026.16
2019-03-28T04:45:24.002Z,1026.15
2019-03-28T04:46:23.987Z,1026.19
2019-03-28T04:47:23.977Z,1026.21
2019-03-28T04:48:23.974Z,1026.23
2019-03-28T04:49:24.075Z,1026.26
2019-03-28T04:50:23.997Z,1026.29
2019-03-28T04:51:23.951Z,1026.27
2019-03-28T04:52:23.942Z,1026.27
2019-03-28T04:53:23.941Z,1026.32
2019-03-28T04:54:23.929Z,1026.30
2019-03-28T04:55:23.921Z,1026.27
2019-03-28T04:56:23.914Z,1026.25
2019-03-28T04:57:23.907Z,1026.28
2019-03-28T04:58:23.901Z,1026.26
2019-03-28T04:59:23.893Z,1026.30
2019-03-28T05:00:23.886Z,1026.26
2019-03-28T05:01:23.879Z,1026.27
2019-03-28T05:02:23.872Z,1026.28
2019-03-28T05:03:23.868Z,1026.30
2019-03-28T05:04:23.864Z,1026.34
2019-03-28T05:05:23.853Z,1026.33
2019-03-28T05:06:24.357Z,1026.36
2019-03-28T05:07:23.839Z,1026.37
2019-03-28T05:08:23.834Z,1026.37
2019-03-28T05:09:23.825Z,1026.39
2019-03-28T05:10:23.818Z,1026.37
2019-03-28T05:11:23.808Z,1026.39
2019-03-28T05:12:23.805Z,1026.37
2019-03-28T05:13:23.794Z,1026.38
2019-03-28T05:14:23.788Z,1026.40
2019-03-28T05:15:23.778Z,1026.40
2019-03-28T05:16:23.774Z,1026.41
2019-03-28T05:17:23.766Z,1026.41
2019-03-28T05:18:23.760Z,1026.40
2019-03-28T05:19:23.752Z,1026.39
2019-03-28T05:20:23.746Z,1026.39
2019-03-28T05:21:23.738Z,1026.43
2019-03-28T05:22:23.734Z,1026.42
2019-03-28T05:23:23.723Z,1026.42
2019-03-28T05:24:25.446Z,1026.44
2019-03-28T05:25:24.318Z,1026.47
2019-03-28T05:26:23.704Z,1026.47
2019-03-28T05:27:23.694Z,1026.46
2019-03-28T05:28:23.687Z,1026.46
2019-03-28T05:29:23.684Z,1026.42
2019-03-28T05:30:23.677Z,1026.47
2019-03-28T05:31:23.668Z,1026.47
2019-03-28T05:32:23.658Z,1026.47
2019-03-28T05:33:23.653Z,1026.47
2019-03-28T05:34:23.646Z,1026.45
2019-03-28T05:35:23.638Z,1026.49
2019-03-28T05:36:23.633Z,1026.47
2019-03-28T05:37:23.624Z,1026.48
2019-03-28T05:38:23.618Z,1026.50
2019-03-28T05:39:23.613Z,1026.49
2019-03-28T05:40:23.604Z,1026.46
2019-03-28T05:41:23.596Z,1026.55
2019-03-28T05:42:23.589Z,1026.53
2019-03-28T05:43:23.584Z,1026.55
2019-03-28T05:44:23.574Z,1026.59
2019-03-28T05:45:23.570Z,1026.62
2019-03-28T05:46:23.562Z,1026.58
2019-03-28T05:47:23.558Z,1026.63
2019-03-28T05:48:23.546Z,1026.65
2019-03-28T05:49:23.539Z,1026.69
2019-03-28T05:50:23.534Z,1026.66
2019-03-28T05:51:23.524Z,1026.68
2019-03-28T05:52:23.518Z,1026.67
2019-03-28T05:53:23.512Z,1026.66
2019-03-28T05:54:23.504Z,1026.64
2019-03-28T05:55:23.498Z,1026.61
2019-03-28T05:56:23.490Z,1026.65
2019-03-28T05:57:23.488Z,1026.66
2019-03-28T05:58:23.476Z,1026.67
2019-03-28T05:59:23.470Z,1026.69
2019-03-28T06:00:23.462Z,1026.68
2019-03-28T06:01:23.454Z,1026.69
2019-03-28T06:02:24.321Z,1026.73
2019-03-28T06:03:23.443Z,1026.72
2019-03-28T06:04:23.434Z,1026.72
2019-03-28T06:05:23.428Z,1026.75
2019-03-28T06:06:23.421Z,1026.76
2019-03-28T06:07:23.413Z,1026.80
2019-03-28T06:08:23.407Z,1026.84
2019-03-28T06:09:23.398Z,1026.83
2019-03-28T06:10:23.396Z,1026.83
2019-03-28T06:11:23.388Z,1026.81
2019-03-28T06:12:23.374Z,1026.88
2019-03-28T06:13:23.371Z,1026.88
2019-03-28T06:14:23.368Z,1026.87
2019-03-28T06:15:23.356Z,1026.91
2019-03-28T06:16:23.360Z,1026.87
2019-03-28T06:17:23.341Z,1026.91
2019-03-28T06:18:23.344Z,1026.96
2019-03-28T06:19:23.329Z,1026.96
2019-03-28T06:20:23.320Z,1026.99
2019-03-28T06:21:23.316Z,1026.99
2019-03-28T06:22:23.308Z,1027.02
2019-03-28T06:23:23.301Z,1027.08
2019-03-28T06:24:23.294Z,1027.08
2019-03-28T06:25:23.295Z,1027.08
2019-03-28T06:26:23.280Z,1027.11
2019-03-28T06:27:23.272Z,1027.11
2019-03-28T06:28:23.267Z,1027.11
2019-03-28T06:29:24.392Z,1027.09
2019-03-28T06:30:23.254Z,1027.13
2019-03-28T06:31:23.244Z,1027.14
2019-03-28T06:32:23.237Z,1027.15
2019-03-28T06:33:23.233Z,1027.15
2019-03-28T06:34:23.227Z,1027.19
2019-03-28T06:35:23.215Z,1027.17
2019-03-28T06:36:23.210Z,1027.14
2019-03-28T06:37:23.206Z,1027.20
2019-03-28T06:38:23.195Z,1027.19
2019-03-28T06:39:23.188Z,1027.12
2019-03-28T06:40:23.181Z,1027.18
2019-03-28T06:41:23.298Z,1027.13
2019-03-28T06:42:23.168Z,1027.17
2019-03-28T06:43:23.163Z,1027.20
2019-03-28T06:44:23.154Z,1027.19
2019-03-28T06:45:23.152Z,1027.23
2019-03-28T06:46:23.143Z,1027.20
2019-03-28T06:47:23.133Z,1027.23
2019-03-28T06:48:23.127Z,1027.23
2019-03-28T06:49:23.125Z,1027.22
2019-03-28T06:50:23.113Z,1027.24
2019-03-28T06:51:23.104Z,1027.23
2019-03-28T06:52:23.099Z,1027.26
2019-03-28T06:53:23.091Z,1027.25
2019-03-28T06:54:24.385Z,1027.29
2019-03-28T06:55:24.078Z,1027.32
2019-03-28T06:56:25.436Z,1027.33
2019-03-28T06:57:23.067Z,1027.28
2019-03-28T06:58:23.058Z,1027.32
2019-03-28T06:59:36.297Z,1027.29
2019-03-28T07:00:23.047Z,1027.33
2019-03-28T07:01:23.036Z,1027.32
2019-03-28T07:02:23.030Z,1027.37
2019-03-28T07:03:23.021Z,1027.33
2019-03-28T07:04:23.013Z,1027.33
2019-03-28T07:05:23.008Z,1027.33
2019-03-28T07:06:23.002Z,1027.36
2019-03-28T07:07:22.993Z,1027.31
2019-03-28T07:08:23.021Z,1027.28
2019-03-28T07:09:22.987Z,1027.28
2019-03-28T07:10:22.974Z,1027.28
2019-03-28T07:11:22.966Z,1027.31
2019-03-28T07:12:22.962Z,1027.32
2019-03-28T07:13:22.953Z,1027.32
2019-03-28T07:14:22.946Z,1027.33
2019-03-28T07:15:22.959Z,1027.33
2019-03-28T07:16:22.938Z,1027.38
2019-03-28T07:17:22.923Z,1027.34
2019-03-28T07:18:22.918Z,1027.35
2019-03-28T07:19:22.911Z,1027.37
2019-03-28T07:20:22.904Z,1027.38
2019-03-28T07:21:22.903Z,1027.42
2019-03-28T07:22:22.894Z,1027.44
2019-03-28T07:23:22.884Z,1027.42
2019-03-28T07:24:22.880Z,1027.46
2019-03-28T07:25:25.419Z,1027.48
2019-03-28T07:26:22.864Z,1027.49
2019-03-28T07:27:22.856Z,1027.51
2019-03-28T07:28:22.850Z,1027.42
2019-03-28T07:29:22.848Z,1027.44
2019-03-28T07:30:22.836Z,1027.44
2019-03-28T07:31:22.829Z,1027.46
2019-03-28T07:32:22.828Z,1027.46
2019-03-28T07:33:22.874Z,1027.46
2019-03-28T07:34:22.809Z,1027.47
2019-03-28T07:35:22.801Z,1027.45
2019-03-28T07:36:22.796Z,1027.48
2019-03-28T07:37:22.788Z,1027.51
2019-03-28T07:38:22.787Z,1027.55
2019-03-28T07:39:22.777Z,1027.54
2019-03-28T07:40:22.768Z,1027.55
2019-03-28T07:41:22.763Z,1027.61
2019-03-28T07:42:22.757Z,1027.59
2019-03-28T07:43:25.105Z,1027.62
2019-03-28T07:44:22.742Z,1027.59
2019-03-28T07:45:22.736Z,1027.63
2019-03-28T07:46:22.728Z,1027.67
2019-03-28T07:47:22.724Z,1027.69
2019-03-28T07:48:22.716Z,1027.65
2019-03-28T07:49:22.714Z,1027.67
2019-03-28T07:50:22.702Z,1027.65
2019-03-28T07:51:22.695Z,1027.72
2019-03-28T07:52:22.690Z,1027.65
2019-03-28T07:53:22.684Z,1027.67
2019-03-28T07:54:22.676Z,1027.65
2019-03-28T07:55:22.670Z,1027.67
2019-03-28T07:56:23.279Z,1027.66
2019-03-28T07:57:22.658Z,1027.71
2019-03-28T07:58:22.652Z,1027.69
2019-03-28T07:59:22.646Z,1027.72
2019-03-28T08:00:22.638Z,1027.74
2019-03-28T08:01:22.633Z,1027.77
2019-03-28T08:02:22.625Z,1027.75
2019-03-28T08:03:22.652Z,1027.69
2019-03-28T08:04:22.616Z,1027.72
2019-03-28T08:05:22.609Z,1027.73
2019-03-28T08:06:22.603Z,1027.73
2019-03-28T08:07:22.595Z,1027.74
2019-03-28T08:08:22.589Z,1027.77
2019-03-28T08:09:35.756Z,1027.72
2019-03-28T08:10:22.577Z,1027.73
2019-03-28T08:11:22.690Z,1027.75
2019-03-28T08:12:23.465Z,1027.75
2019-03-28T08:13:22.557Z,1027.79
2019-03-28T08:14:22.549Z,1027.79
2019-03-28T08:15:22.542Z,1027.80
2019-03-28T08:16:22.540Z,1027.79
2019-03-28T08:17:22.531Z,1027.80
2019-03-28T08:18:23.837Z,1027.83
2019-03-28T08:19:22.518Z,1027.81
2019-03-28T08:20:22.514Z,1027.85
2019-03-28T08:21:22.507Z,1027.82
2019-03-28T08:22:22.500Z,1027.81
2019-03-28T08:23:22.493Z,1027.84
2019-03-28T08:24:22.491Z,1027.82
2019-03-28T08:25:22.482Z,1027.78
2019-03-28T08:26:22.474Z,1027.82
2019-03-28T08:27:22.467Z,1027.81
2019-03-28T08:28:22.461Z,1027.76
2019-03-28T08:29:22.458Z,1027.85
2019-03-28T08:30:22.449Z,1027.92
2019-03-28T08:31:22.442Z,1027.90
2019-03-28T08:32:22.435Z,1027.90
2019-03-28T08:33:22.432Z,1027.91
2019-03-28T08:34:22.423Z,1027.87
2019-03-28T08:35:22.424Z,1027.90
2019-03-28T08:36:22.412Z,1027.87
2019-03-28T08:37:22.406Z,1027.93
2019-03-28T08:38:22.398Z,1027.91
2019-03-28T08:39:22.399Z,1027.96
2019-03-28T08:40:22.495Z,1027.95
2019-03-28T08:41:22.380Z,1027.95
2019-03-28T08:42:22.375Z,1027.96
2019-03-28T08:43:22.369Z,1027.97
2019-03-28T08:44:22.908Z,1027.96
2019-03-28T08:45:22.354Z,1027.96
2019-03-28T08:46:22.349Z,1027.99
2019-03-28T08:47:22.344Z,1027.98
2019-03-28T08:48:22.340Z,1027.97
2019-03-28T08:49:22.336Z,1027.96
2019-03-28T08:50:22.324Z,1028.03
2019-03-28T08:51:22.323Z,1028.01
2019-03-28T08:52:22.309Z,1028.08
2019-03-28T08:53:22.307Z,1028.08
2019-03-28T08:54:22.297Z,1028.10
2019-03-28T08:55:22.293Z,1028.07
2019-03-28T08:56:22.286Z,1028.06
2019-03-28T08:57:22.285Z,1028.06
2019-03-28T08:58:22.276Z,1028.08
2019-03-28T08:59:22.268Z,1028.08
2019-03-28T09:00:33.067Z,1028.09
2019-03-28T09:01:22.257Z,1028.10
2019-03-28T09:02:22.248Z,1028.08
2019-03-28T09:03:22.242Z,1028.11
2019-03-28T09:04:22.236Z,1028.10
2019-03-28T09:05:22.232Z,1028.12
2019-03-28T09:06:22.225Z,1028.10
2019-03-28T09:07:22.228Z,1028.08
2019-03-28T09:08:22.214Z,1028.03
2019-03-28T09:09:22.205Z,1028.07
2019-03-28T09:10:22.201Z,1028.09
2019-03-28T09:11:22.193Z,1028.09
2019-03-28T09:12:22.188Z,1028.09
2019-03-28T09:13:22.182Z,1028.07
2019-03-28T09:14:22.183Z,1028.08
2019-03-28T09:15:22.169Z,1028.08
2019-03-28T09:16:22.165Z,1028.10
2019-03-28T09:17:23.830Z,1028.10
2019-03-28T09:18:22.151Z,1028.13
2019-03-28T09:19:22.160Z,1028.15
2019-03-28T09:20:22.142Z,1028.14
2019-03-28T09:21:22.145Z,1028.16
2019-03-28T09:22:22.128Z,1028.18
2019-03-28T09:23:22.119Z,1028.20
2019-03-28T09:24:22.113Z,1028.20
2019-03-28T09:25:22.108Z,1028.16
2019-03-28T09:26:22.105Z,1028.17
2019-03-28T09:27:22.104Z,1028.17
2019-03-28T09:28:22.091Z,1028.20
2019-03-28T09:29:22.084Z,1028.19
2019-03-28T09:30:22.079Z,1028.14
2019-03-28T09:31:22.071Z,1028.19
2019-03-28T09:32:22.061Z,1028.13
2019-03-28T09:33:22.060Z,1028.14
2019-03-28T09:34:22.054Z,1028.14
2019-03-28T09:35:22.047Z,1028.15
2019-03-28T09:36:22.044Z,1028.14
2019-03-28T09:37:22.096Z,1028.19
2019-03-28T09:38:22.029Z,1028.12
2019-03-28T09:39:24.749Z,1028.10
2019-03-28T09:40:22.016Z,1028.11
2019-03-28T09:41:22.011Z,1028.06
2019-03-28T09:42:22.013Z,1028.03
2019-03-28T09:43:21.998Z,1028.03
2019-03-28T09:44:21.996Z,1028.06
2019-03-28T09:45:21.986Z,1028.09
2019-03-28T09:46:21.983Z,1028.07
2019-03-28T09:47:21.972Z,1028.09
2019-03-28T09:48:21.967Z,1028.10
2019-03-28T09:49:21.958Z,1028.06
2019-03-28T09:50:21.957Z,1028.05
2019-03-28T09:51:21.954Z,1028.06
2019-03-28T09:52:21.947Z,1028.06
2019-03-28T09:53:21.937Z,1028.06
2019-03-28T09:54:21.928Z,1028.05
2019-03-28T09:55:21.934Z,1028.02
2019-03-28T09:56:21.919Z,1028.01
2019-03-28T09:57:21.916Z,1028.01
2019-03-28T09:58:21.907Z,1027.99
2019-03-28T09:59:21.901Z,1028.01
2019-03-28T10:00:21.898Z,1027.98
2019-03-28T10:01:21.890Z,1027.99
2019-03-28T10:02:21.884Z,1027.98
2019-03-28T10:03:21.876Z,1028.02
2019-03-28T10:04:21.872Z,1028.04
2019-03-28T10:05:21.865Z,1028.03
2019-03-28T10:06:21.860Z,1028.01
2019-03-28T10:07:21.856Z,1028.04
2019-03-28T10:08:21.846Z,1028.06
2019-03-28T10:09:21.842Z,1028.06
2019-03-28T10:10:21.835Z,1028.16
2019-03-28T10:11:21.829Z,1028.14
2019-03-28T10:12:21.828Z,1028.14
2019-03-28T10:13:21.818Z,1028.16
2019-03-28T10:14:21.815Z,1028.15
2019-03-28T10:15:21.805Z,1028.13
2019-03-28T10:16:21.800Z,1028.13
2019-03-28T10:17:21.794Z,1028.13
2019-03-28T10:18:21.789Z,1028.16
2019-03-28T10:19:21.781Z,1028.14
2019-03-28T10:20:21.775Z,1028.15
2019-03-28T10:21:21.771Z,1028.13
2019-03-28T10:22:22.505Z,1028.12
2019-03-28T10:23:21.760Z,1028.11
2019-03-28T10:24:21.755Z,1028.15
2019-03-28T10:25:21.747Z,1028.09
2019-03-28T10:26:21.752Z,1028.06
2019-03-28T10:27:21.733Z,1028.10
2019-03-28T10:28:21.738Z,1028.12
2019-03-28T10:29:21.727Z,1028.14
2019-03-28T10:30:21.719Z,1028.15
2019-03-28T10:31:21.708Z,1028.11
2019-03-28T10:32:21.705Z,1028.13
2019-03-28T10:33:21.699Z,1028.09
2019-03-28T10:34:21.694Z,1028.13
2019-03-28T10:35:21.689Z,1028.16
2019-03-28T10:36:21.681Z,1028.10
2019-03-28T10:37:21.676Z,1028.14
2019-03-28T10:38:21.669Z,1028.14
2019-03-28T10:39:21.667Z,1028.16
2019-03-28T10:40:21.659Z,1028.17
2019-03-28T10:41:21.655Z,1028.17
2019-03-28T10:42:21.648Z,1028.20
2019-03-28T10:43:21.645Z,1028.12
2019-03-28T10:44:21.634Z,1028.14
2019-03-28T10:45:21.629Z,1028.20
2019-03-28T10:46:21.709Z,1028.16
2019-03-28T10:47:21.617Z,1028.17
2019-03-28T10:48:23.434Z,1028.15
2019-03-28T10:49:21.606Z,1028.14
2019-03-28T10:50:21.601Z,1028.18
2019-03-28T10:51:21.594Z,1028.19
2019-03-28T10:52:21.589Z,1028.18
2019-03-28T10:53:21.585Z,1028.19
2019-03-28T10:54:21.580Z,1028.21
2019-03-28T10:55:21.572Z,1028.20
2019-03-28T10:56:23.289Z,1028.20
2019-03-28T10:57:29.696Z,1028.21
2019-03-28T10:58:21.554Z,1028.19
2019-03-28T10:59:23.735Z,1028.16
2019-03-28T11:00:24.325Z,1028.19
2019-03-28T11:01:36.141Z,1028.16
2019-03-28T11:02:21.532Z,1028.13
2019-03-28T11:03:21.523Z,1028.19
2019-03-28T11:04:22.577Z,1028.20
2019-03-28T11:05:21.514Z,1028.20
2019-03-28T11:06:21.508Z,1028.20
2019-03-28T11:07:21.504Z,1028.23
2019-03-28T11:08:21.496Z,1028.23
2019-03-28T11:09:21.491Z,1028.24
2019-03-28T11:10:21.484Z,1028.26
2019-03-28T11:11:22.494Z,1028.30
2019-03-28T11:12:21.473Z,1028.29
2019-03-28T11:13:21.466Z,1028.29
2019-03-28T11:14:21.465Z,1028.29
2019-03-28T11:15:21.455Z,1028.31
2019-03-28T11:16:21.450Z,1028.28
2019-03-28T11:17:21.895Z,1028.34
2019-03-28T11:18:21.437Z,1028.34
2019-03-28T11:19:21.431Z,1028.33
2019-03-28T11:20:21.429Z,1028.36
2019-03-28T11:21:21.421Z,1028.34
2019-03-28T11:22:21.420Z,1028.35
2019-03-28T11:23:21.413Z,1028.36
2019-03-28T11:24:21.408Z,1028.42
2019-03-28T11:25:21.399Z,1028.37
2019-03-28T11:26:21.393Z,1028.40
2019-03-28T11:27:21.391Z,1028.48
2019-03-28T11:28:23.458Z,1028.45
2019-03-28T11:29:21.375Z,1028.48
2019-03-28T11:30:21.371Z,1028.44
2019-03-28T11:31:21.364Z,1028.48
2019-03-28T11:32:21.358Z,1028.49
2019-03-28T11:33:22.219Z,1028.50
2019-03-28T11:34:21.349Z,1028.51
2019-03-28T11:35:21.341Z,1028.53
2019-03-28T11:36:21.337Z,1028.50
2019-03-28T11:37:26.391Z,1028.52
2019-03-28T11:38:21.325Z,1028.53
2019-03-28T11:39:21.319Z,1028.54
2019-03-28T11:40:24.453Z,1028.56
2019-03-28T11:41:21.306Z,1028.53
2019-03-28T11:42:21.303Z,1028.53
2019-03-28T11:43:21.298Z,1028.51
2019-03-28T11:44:21.303Z,1028.60
2019-03-28T11:45:21.285Z,1028.58
2019-03-28T11:46:21.283Z,1028.59
2019-03-28T11:47:22.349Z,1028.59
2019-03-28T11:48:21.269Z,1028.62
2019-03-28T11:49:21.269Z,1028.60
2019-03-28T11:50:21.259Z,1028.58
2019-03-28T11:51:21.251Z,1028.58
2019-03-28T11:52:21.241Z,1028.60
2019-03-28T11:53:21.239Z,1028.62
2019-03-28T11:54:21.238Z,1028.63
2019-03-28T11:55:21.239Z,1028.62
2019-03-28T11:56:21.224Z,1028.63
2019-03-28T11:57:21.219Z,1028.62
2019-03-28T11:58:21.237Z,1028.56
2019-03-28T11:59:21.205Z,1028.70
2019-03-28T12:00:21.201Z,1028.67
2019-03-28T12:01:21.195Z,1028.67
2019-03-28T12:02:21.189Z,1028.63
2019-03-28T12:03:21.185Z,1028.66
2019-03-28T12:04:21.177Z,1028.65
2019-03-28T12:05:21.200Z,1028.72